createdAt,value
2018-08-13T00:00:23.193Z,45.63
2018-08-13T00:00:54.829Z,45.67
2018-08-13T00:01:26.441Z,45.66
2018-08-13T00:01:58.010Z,45.60
2018-08-13T00:02:29.605Z,45.66
2018-08-13T00:03:01.195Z,45.61
2018-08-13T00:03:32.794Z,45.60
2018-08-13T00:04:04.391Z,45.69
2018-08-13T00:04:35.966Z,45.67
2018-08-13T00:05:07.538Z,45.58
2018-08-13T00:05:39.171Z,45.53
2018-08-13T00:06:10.755Z,45.60
2018-08-13T00:06:42.343Z,45.63
2018-08-13T00:07:13.936Z,45.54
2018-08-13T00:07:45.529Z,45.56
2018-08-13T00:08:17.119Z,45.54
2018-08-13T00:08:48.716Z,45.54
2018-08-13T00:09:20.303Z,45.45
2018-08-13T00:09:51.901Z,45.41
2018-08-13T00:10:23.487Z,45.50
2018-08-13T00:10:55.127Z,45.48
2018-08-13T00:11:26.726Z,45.55
2018-08-13T00:11:58.318Z,45.73
2018-08-13T00:12:29.921Z,45.48
2018-08-13T00:13:01.509Z,45.42
2018-08-13T00:13:33.095Z,45.51
2018-08-13T00:14:04.689Z,45.37
2018-08-13T00:14:36.274Z,45.37
2018-08-13T00:15:07.874Z,45.35
2018-08-13T00:15:39.479Z,45.43
2018-08-13T00:16:11.107Z,45.21
2018-08-13T00:16:42.707Z,45.24
2018-08-13T00:17:14.296Z,45.41
2018-08-13T00:17:45.889Z,45.20
2018-08-13T00:18:17.479Z,45.38
2018-08-13T00:18:49.066Z,45.61
2018-08-13T00:19:20.651Z,45.26
2018-08-13T00:19:52.240Z,45.21
2018-08-13T00:20:23.838Z,45.20
2018-08-13T00:20:55.424Z,45.30
2018-08-13T00:21:27.079Z,45.18
2018-08-13T00:21:58.668Z,45.16
2018-08-13T00:22:30.237Z,45.08
2018-08-13T00:23:01.820Z,45.09
2018-08-13T00:23:33.407Z,45.01
2018-08-13T00:24:04.985Z,45.01
2018-08-13T00:24:36.586Z,45.10
2018-08-13T00:25:08.175Z,45.10
2018-08-13T00:25:39.759Z,45.19
2018-08-13T00:26:11.353Z,45.07
2018-08-13T00:26:42.953Z,45.04
2018-08-13T00:27:14.589Z,45.22
2018-08-13T00:27:46.162Z,45.50
2018-08-13T00:28:17.791Z,45.20
2018-08-13T00:28:49.375Z,45.14
2018-08-13T00:29:20.978Z,44.94
2018-08-13T00:29:52.571Z,44.88
2018-08-13T00:30:24.159Z,44.82
2018-08-13T00:30:55.757Z,44.86
2018-08-13T00:31:27.365Z,44.84
2018-08-13T00:31:58.951Z,44.96
2018-08-13T00:32:30.526Z,45.04
2018-08-13T00:33:02.141Z,45.03
2018-08-13T00:33:33.727Z,44.92
2018-08-13T00:34:05.326Z,45.06
2018-08-13T00:34:36.906Z,45.06
2018-08-13T00:35:08.501Z,45.03
2018-08-13T00:35:40.137Z,44.93
2018-08-13T00:36:11.724Z,44.99
2018-08-13T00:36:43.293Z,44.96
2018-08-13T00:37:14.890Z,45.08
2018-08-13T00:37:46.485Z,45.00
2018-08-13T00:38:18.075Z,45.03
2018-08-13T00:38:49.700Z,44.92
2018-08-13T00:39:21.310Z,44.90
2018-08-13T00:39:52.909Z,44.90
2018-08-13T00:40:24.491Z,45.02
2018-08-13T00:40:56.137Z,44.92
2018-08-13T00:41:27.738Z,44.92
2018-08-13T00:41:59.327Z,44.90
2018-08-13T00:42:30.904Z,44.87
2018-08-13T00:43:02.494Z,44.91
2018-08-13T00:43:34.103Z,44.94
2018-08-13T00:44:05.682Z,44.87
2018-08-13T00:44:37.257Z,44.85
2018-08-13T00:45:08.842Z,44.82
2018-08-13T00:45:40.435Z,44.77
2018-08-13T00:46:12.049Z,44.85
2018-08-13T00:46:43.634Z,44.84
2018-08-13T00:47:15.228Z,44.78
2018-08-13T00:47:46.825Z,44.75
2018-08-13T00:48:18.411Z,44.77
2018-08-13T00:48:50.009Z,44.84
2018-08-13T00:49:21.617Z,44.91
2018-08-13T00:49:53.206Z,44.90
2018-08-13T00:50:24.842Z,44.91
2018-08-13T00:50:56.435Z,44.91
2018-08-13T00:51:28.019Z,44.94
2018-08-13T00:51:59.593Z,44.76
2018-08-13T00:52:31.194Z,44.82
2018-08-13T00:53:02.791Z,44.77
2018-08-13T00:53:34.379Z,44.81
2018-08-13T00:54:05.973Z,44.84
2018-08-13T00:54:37.551Z,44.95
2018-08-13T00:55:09.135Z,44.93
2018-08-13T00:55:40.766Z,45.04
2018-08-13T00:56:12.341Z,44.97
2018-08-13T00:56:43.924Z,44.86
2018-08-13T00:57:15.512Z,45.01
2018-08-13T00:57:47.099Z,45.04
2018-08-13T00:58:18.683Z,44.99
2018-08-13T00:58:50.275Z,45.00
2018-08-13T00:59:21.849Z,44.98
2018-08-13T00:59:53.432Z,45.07
2018-08-13T01:00:25.040Z,45.02
2018-08-13T01:00:56.702Z,44.98
2018-08-13T01:01:28.287Z,44.93
2018-08-13T01:01:59.861Z,44.91
2018-08-13T01:02:31.456Z,45.02
2018-08-13T01:03:03.047Z,45.02
2018-08-13T01:03:34.617Z,44.96
2018-08-13T01:04:06.217Z,44.97
2018-08-13T01:04:37.814Z,44.87
2018-08-13T01:05:09.410Z,44.75
2018-08-13T01:05:40.996Z,44.82
2018-08-13T01:06:12.584Z,44.82
2018-08-13T01:06:44.233Z,44.89
2018-08-13T01:07:15.809Z,45.15
2018-08-13T01:07:47.395Z,44.83
2018-08-13T01:08:18.964Z,44.92
2018-08-13T01:08:50.541Z,44.88
2018-08-13T01:09:22.115Z,44.85
2018-08-13T01:09:53.699Z,44.86
2018-08-13T01:10:25.283Z,44.99
2018-08-13T01:10:56.885Z,45.04
2018-08-13T01:11:28.487Z,45.19
2018-08-13T01:12:00.115Z,44.93
2018-08-13T01:12:31.714Z,45.61
2018-08-13T01:13:03.299Z,45.02
2018-08-13T01:13:34.882Z,44.94
2018-08-13T01:14:06.534Z,44.89
2018-08-13T01:14:38.129Z,44.85
2018-08-13T01:15:09.725Z,45.24
2018-08-13T01:15:41.331Z,45.31
2018-08-13T01:16:12.919Z,45.02
2018-08-13T01:16:44.508Z,45.13
2018-08-13T01:17:16.143Z,45.11
2018-08-13T01:17:47.717Z,45.12
2018-08-13T01:18:19.291Z,45.07
2018-08-13T01:18:50.885Z,45.05
2018-08-13T01:19:22.472Z,44.97
2018-08-13T01:19:54.059Z,44.87
2018-08-13T01:20:25.653Z,44.89
2018-08-13T01:20:57.229Z,44.81
2018-08-13T01:21:28.829Z,44.74
2018-08-13T01:22:00.402Z,44.72
2018-08-13T01:22:32.028Z,44.62
2018-08-13T01:23:03.601Z,44.58
2018-08-13T01:23:35.191Z,44.58
2018-08-13T01:24:06.775Z,44.36
2018-08-13T01:24:38.373Z,44.26
2018-08-13T01:25:09.963Z,44.35
2018-08-13T01:25:41.587Z,44.40
2018-08-13T01:26:13.154Z,44.51
2018-08-13T01:26:44.733Z,44.43
2018-08-13T01:27:16.333Z,44.43
2018-08-13T01:27:47.909Z,44.32
2018-08-13T01:28:19.504Z,44.35
2018-08-13T01:28:51.100Z,44.88
2018-08-13T01:29:22.697Z,44.45
2018-08-13T01:29:54.324Z,44.54
2018-08-13T01:30:25.913Z,44.60
2018-08-13T01:30:57.503Z,44.69
2018-08-13T01:31:29.077Z,44.71
2018-08-13T01:32:00.707Z,44.74
2018-08-13T01:32:32.291Z,44.81
2018-08-13T01:33:03.927Z,44.73
2018-08-13T01:33:35.510Z,44.82
2018-08-13T01:34:07.104Z,44.72
2018-08-13T01:34:38.691Z,44.67
2018-08-13T01:35:10.268Z,44.66
2018-08-13T01:35:41.855Z,44.59
2018-08-13T01:36:13.449Z,44.75
2018-08-13T01:36:45.046Z,44.72
2018-08-13T01:37:16.650Z,44.63
2018-08-13T01:37:48.328Z,44.62
2018-08-13T01:38:19.926Z,44.69
2018-08-13T01:38:51.512Z,44.71
2018-08-13T01:39:23.099Z,44.75
2018-08-13T01:39:54.698Z,45.70
2018-08-13T01:40:26.336Z,44.80
2018-08-13T01:40:57.923Z,44.74
2018-08-13T01:41:29.497Z,44.78
2018-08-13T01:42:01.089Z,44.76
2018-08-13T01:42:32.678Z,44.79
2018-08-13T01:43:04.252Z,44.80
2018-08-13T01:43:35.845Z,44.84
2018-08-13T01:44:07.454Z,44.87
2018-08-13T01:44:39.029Z,44.87
2018-08-13T01:45:10.632Z,44.81
2018-08-13T01:45:42.269Z,44.80
2018-08-13T01:46:13.877Z,44.81
2018-08-13T01:46:45.473Z,44.83
2018-08-13T01:47:17.063Z,44.84
2018-08-13T01:47:48.661Z,44.80
2018-08-13T01:48:20.247Z,44.85
2018-08-13T01:48:51.841Z,44.93
2018-08-13T01:49:23.436Z,44.76
2018-08-13T01:49:55.030Z,44.83
2018-08-13T01:50:26.656Z,44.78
2018-08-13T01:50:58.317Z,44.75
2018-08-13T01:51:29.906Z,44.72
2018-08-13T01:52:01.554Z,44.83
2018-08-13T01:52:33.153Z,44.89
2018-08-13T01:53:04.743Z,44.93
2018-08-13T01:53:36.327Z,44.90
2018-08-13T01:54:07.925Z,44.81
2018-08-13T01:54:39.511Z,44.78
2018-08-13T01:55:11.103Z,44.67
2018-08-13T01:55:42.686Z,44.55
2018-08-13T01:56:14.314Z,44.74
2018-08-13T01:56:45.902Z,44.45
2018-08-13T01:57:17.497Z,44.51
2018-08-13T01:57:49.084Z,44.53
2018-08-13T01:58:20.671Z,44.53
2018-08-13T01:58:52.244Z,44.51
2018-08-13T01:59:23.842Z,44.55
2018-08-13T01:59:55.437Z,44.56
2018-08-13T02:00:27.043Z,44.47
2018-08-13T02:00:58.627Z,44.34
2018-08-13T02:01:30.298Z,44.39
2018-08-13T02:02:01.871Z,44.38
2018-08-13T02:02:33.469Z,44.37
2018-08-13T02:03:05.056Z,44.33
2018-08-13T02:03:36.642Z,44.29
2018-08-13T02:04:08.242Z,44.32
2018-08-13T02:04:39.879Z,44.35
2018-08-13T02:05:11.481Z,44.39
2018-08-13T02:05:43.071Z,44.38
2018-08-13T02:06:14.668Z,44.40
2018-08-13T02:06:46.257Z,44.43
2018-08-13T02:07:17.853Z,44.49
2018-08-13T02:07:49.443Z,44.36
2018-08-13T02:08:21.026Z,44.44
2018-08-13T02:08:52.613Z,44.48
2018-08-13T02:09:24.308Z,44.41
2018-08-13T02:09:55.936Z,44.40
2018-08-13T02:10:27.523Z,44.40
2018-08-13T02:10:59.109Z,44.43
2018-08-13T02:11:30.695Z,44.39
2018-08-13T02:12:02.283Z,44.42
2018-08-13T02:12:33.878Z,44.37
2018-08-13T02:13:05.477Z,44.40
2018-08-13T02:13:37.066Z,44.33
2018-08-13T02:14:08.683Z,44.38
2018-08-13T02:14:40.281Z,44.40
2018-08-13T02:15:11.867Z,44.37
2018-08-13T02:15:43.451Z,44.34
2018-08-13T02:16:15.083Z,44.43
2018-08-13T02:16:46.668Z,44.51
2018-08-13T02:17:18.274Z,44.45
2018-08-13T02:17:49.854Z,44.37
2018-08-13T02:18:21.458Z,44.45
2018-08-13T02:18:53.044Z,44.46
2018-08-13T02:19:24.627Z,44.49
2018-08-13T02:19:56.211Z,44.37
2018-08-13T02:20:27.805Z,44.31
2018-08-13T02:20:59.391Z,44.24
2018-08-13T02:21:31.038Z,44.21
2018-08-13T02:22:02.633Z,44.25
2018-08-13T02:22:34.219Z,44.23
2018-08-13T02:23:05.877Z,44.18
2018-08-13T02:23:37.487Z,44.28
2018-08-13T02:24:09.079Z,44.31
2018-08-13T02:24:40.663Z,44.32
2018-08-13T02:25:12.266Z,44.42
2018-08-13T02:25:43.869Z,44.32
2018-08-13T02:26:15.460Z,44.39
2018-08-13T02:26:47.089Z,44.39
2018-08-13T02:27:18.680Z,44.32
2018-08-13T02:27:50.249Z,44.38
2018-08-13T02:28:21.836Z,44.23
2018-08-13T02:28:53.423Z,44.24
2018-08-13T02:29:25.021Z,44.25
2018-08-13T02:29:56.625Z,44.17
2018-08-13T02:30:28.217Z,44.12
2018-08-13T02:30:59.797Z,44.17
2018-08-13T02:31:31.388Z,44.16
2018-08-13T02:32:03.027Z,44.20
2018-08-13T02:32:34.615Z,44.07
2018-08-13T02:33:06.204Z,44.03
2018-08-13T02:33:37.846Z,44.00
2018-08-13T02:34:09.437Z,44.01
2018-08-13T02:34:41.084Z,44.04
2018-08-13T02:35:12.711Z,44.04
2018-08-13T02:35:44.303Z,44.08
2018-08-13T02:36:15.888Z,44.07
2018-08-13T02:36:47.474Z,44.09
2018-08-13T02:37:19.079Z,44.08
2018-08-13T02:37:50.671Z,44.01
2018-08-13T02:38:22.255Z,43.95
2018-08-13T02:38:53.879Z,43.89
2018-08-13T02:39:25.475Z,44.01
2018-08-13T02:39:57.073Z,43.90
2018-08-13T02:40:28.661Z,44.13
2018-08-13T02:41:00.296Z,44.80
2018-08-13T02:41:31.888Z,44.26
2018-08-13T02:42:03.482Z,44.08
2018-08-13T02:42:35.091Z,43.82
2018-08-13T02:43:06.681Z,43.69
2018-08-13T02:43:38.259Z,43.51
2018-08-13T02:44:09.898Z,43.77
2018-08-13T02:44:41.491Z,43.85
2018-08-13T02:45:13.083Z,44.11
2018-08-13T02:45:44.682Z,44.25
2018-08-13T02:46:16.269Z,44.29
2018-08-13T02:46:47.903Z,44.46
2018-08-13T02:47:19.497Z,44.40
2018-08-13T02:47:51.084Z,44.50
2018-08-13T02:48:22.659Z,44.38
2018-08-13T02:48:54.229Z,44.35
2018-08-13T02:49:25.820Z,44.47
2018-08-13T02:49:57.407Z,44.35
2018-08-13T02:50:28.977Z,44.46
2018-08-13T02:51:00.565Z,44.45
2018-08-13T02:51:32.151Z,44.54
2018-08-13T02:52:03.965Z,44.50
2018-08-13T02:52:35.561Z,44.73
2018-08-13T02:53:07.201Z,44.75
2018-08-13T02:53:38.812Z,44.43
2018-08-13T02:54:10.409Z,44.52
2018-08-13T02:54:42.017Z,44.59
2018-08-13T02:55:13.594Z,44.60
2018-08-13T02:55:45.212Z,44.70
2018-08-13T02:56:16.810Z,44.47
2018-08-13T02:56:48.439Z,44.17
2018-08-13T02:57:20.019Z,44.42
2018-08-13T02:57:51.608Z,44.40
2018-08-13T02:58:23.191Z,44.43
2018-08-13T02:58:54.767Z,44.21
2018-08-13T02:59:26.338Z,44.22
2018-08-13T02:59:57.932Z,44.31
2018-08-13T03:00:29.716Z,43.56
2018-08-13T03:01:01.304Z,43.74
2018-08-13T03:01:32.874Z,44.26
2018-08-13T03:02:04.511Z,45.20
2018-08-13T03:02:36.105Z,45.44
2018-08-13T03:03:07.702Z,45.41
2018-08-13T03:03:39.313Z,45.26
2018-08-13T03:04:10.898Z,44.96
2018-08-13T03:04:42.535Z,44.76
2018-08-13T03:05:14.115Z,44.55
2018-08-13T03:05:45.703Z,44.55
2018-08-13T03:06:17.343Z,44.32
2018-08-13T03:06:48.919Z,44.00
2018-08-13T03:07:20.499Z,43.96
2018-08-13T03:07:52.085Z,43.94
2018-08-13T03:08:23.672Z,43.85
2018-08-13T03:08:55.273Z,43.85
2018-08-13T03:09:26.869Z,43.89
2018-08-13T03:09:58.456Z,43.88
2018-08-13T03:10:30.380Z,43.76
2018-08-13T03:11:01.982Z,43.97
2018-08-13T03:11:33.607Z,43.95
2018-08-13T03:12:05.241Z,43.94
2018-08-13T03:12:36.827Z,43.92
2018-08-13T03:13:08.412Z,43.77
2018-08-13T03:13:40.008Z,43.78
2018-08-13T03:14:11.596Z,43.73
2018-08-13T03:14:43.188Z,43.71
2018-08-13T03:15:14.776Z,43.43
2018-08-13T03:15:46.383Z,43.36
2018-08-13T03:16:17.984Z,43.50
2018-08-13T03:16:49.617Z,43.37
2018-08-13T03:17:21.229Z,43.19
2018-08-13T03:17:52.826Z,43.44
2018-08-13T03:18:24.416Z,43.36
2018-08-13T03:18:56.021Z,43.38
2018-08-13T03:19:27.626Z,43.31
2018-08-13T03:19:59.268Z,43.39
2018-08-13T03:20:30.847Z,43.25
2018-08-13T03:21:02.446Z,43.30
2018-08-13T03:21:34.022Z,43.30
2018-08-13T03:22:05.665Z,43.28
2018-08-13T03:22:37.252Z,43.28
2018-08-13T03:23:08.869Z,43.42
2018-08-13T03:23:40.456Z,43.16
2018-08-13T03:24:12.044Z,43.37
2018-08-13T03:24:43.627Z,43.36
2018-08-13T03:25:15.225Z,43.15
2018-08-13T03:25:46.811Z,43.21
2018-08-13T03:26:18.410Z,43.07
2018-08-13T03:26:50.059Z,43.21
2018-08-13T03:27:21.644Z,43.27
2018-08-13T03:27:53.241Z,43.17
2018-08-13T03:28:24.837Z,43.22
2018-08-13T03:28:56.414Z,43.33
2018-08-13T03:29:28.010Z,43.32
2018-08-13T03:29:59.587Z,43.49
2018-08-13T03:30:31.171Z,43.57
2018-08-13T03:31:02.766Z,43.20
2018-08-13T03:31:34.351Z,43.25
2018-08-13T03:32:05.971Z,43.32
2018-08-13T03:32:37.555Z,43.37
2018-08-13T03:33:09.148Z,43.50
2018-08-13T03:33:40.741Z,43.32
2018-08-13T03:34:12.377Z,43.38
2018-08-13T03:34:43.964Z,43.37
2018-08-13T03:35:15.550Z,43.45
2018-08-13T03:35:47.131Z,43.47
2018-08-13T03:36:18.714Z,43.26
2018-08-13T03:36:50.349Z,43.28
2018-08-13T03:37:21.921Z,43.33
2018-08-13T03:37:53.502Z,43.30
2018-08-13T03:38:25.092Z,43.33
2018-08-13T03:38:56.665Z,43.20
2018-08-13T03:39:28.286Z,43.31
2018-08-13T03:39:59.877Z,43.21
2018-08-13T03:40:31.458Z,43.05
2018-08-13T03:41:03.054Z,43.12
2018-08-13T03:41:34.635Z,43.10
2018-08-13T03:42:06.234Z,43.23
2018-08-13T03:42:37.819Z,43.15
2018-08-13T03:43:09.467Z,43.08
2018-08-13T03:43:41.051Z,42.93
2018-08-13T03:44:12.648Z,43.01
2018-08-13T03:44:44.235Z,42.95
2018-08-13T03:45:15.819Z,43.00
2018-08-13T03:45:47.385Z,43.02
2018-08-13T03:46:18.977Z,43.11
2018-08-13T03:46:50.572Z,43.11
2018-08-13T03:47:22.170Z,43.14
2018-08-13T03:47:53.774Z,43.10
2018-08-13T03:48:25.413Z,43.04
2018-08-13T03:48:57.039Z,43.11
2018-08-13T03:49:28.633Z,43.21
2018-08-13T03:50:00.238Z,43.19
2018-08-13T03:50:31.973Z,43.28
2018-08-13T03:51:03.569Z,43.50
2018-08-13T03:51:35.146Z,43.50
2018-08-13T03:52:06.727Z,43.48
2018-08-13T03:52:38.325Z,43.56
2018-08-13T03:53:09.925Z,43.24
2018-08-13T03:53:41.568Z,43.28
2018-08-13T03:54:13.127Z,43.35
2018-08-13T03:54:44.712Z,43.28
2018-08-13T03:55:16.285Z,43.23
2018-08-13T03:55:47.916Z,43.42
2018-08-13T03:56:19.503Z,43.36
2018-08-13T03:56:51.077Z,43.44
2018-08-13T03:57:22.670Z,43.42
2018-08-13T03:57:54.256Z,43.47
2018-08-13T03:58:25.839Z,43.41
2018-08-13T03:58:57.425Z,43.39
2018-08-13T03:59:29.029Z,43.39
2018-08-13T04:00:00.624Z,43.34
2018-08-13T04:00:32.208Z,43.41
2018-08-13T04:01:03.841Z,43.53
2018-08-13T04:01:35.438Z,43.42
2018-08-13T04:02:07.025Z,43.50
2018-08-13T04:02:38.617Z,43.41
2018-08-13T04:03:10.190Z,43.46
2018-08-13T04:03:41.785Z,43.47
2018-08-13T04:04:13.381Z,43.52
2018-08-13T04:04:44.979Z,43.36
2018-08-13T04:05:16.563Z,43.45
2018-08-13T04:05:48.161Z,43.55
2018-08-13T04:06:19.809Z,43.48
2018-08-13T04:06:51.394Z,43.53
2018-08-13T04:07:22.979Z,43.48
2018-08-13T04:07:54.563Z,43.44
2018-08-13T04:08:26.161Z,43.44
2018-08-13T04:08:57.747Z,43.50
2018-08-13T04:09:29.341Z,43.60
2018-08-13T04:10:00.933Z,43.56
2018-08-13T04:10:32.520Z,43.76
2018-08-13T04:11:04.117Z,43.68
2018-08-13T04:11:35.746Z,43.58
2018-08-13T04:12:07.331Z,43.71
2018-08-13T04:12:38.921Z,43.69
2018-08-13T04:13:10.564Z,43.77
2018-08-13T04:13:42.152Z,43.71
2018-08-13T04:14:13.725Z,43.69
2018-08-13T04:14:45.307Z,43.72
2018-08-13T04:15:16.891Z,43.78
2018-08-13T04:15:48.492Z,43.81
2018-08-13T04:16:20.094Z,43.94
2018-08-13T04:16:51.701Z,43.91
2018-08-13T04:17:23.301Z,43.85
2018-08-13T04:17:54.943Z,43.95
2018-08-13T04:18:26.531Z,43.86
2018-08-13T04:18:58.133Z,43.86
2018-08-13T04:19:29.719Z,43.94
2018-08-13T04:20:01.323Z,43.86
2018-08-13T04:20:32.917Z,43.85
2018-08-13T04:21:04.546Z,43.77
2018-08-13T04:21:36.175Z,43.86
2018-08-13T04:22:07.762Z,43.87
2018-08-13T04:22:39.357Z,43.79
2018-08-13T04:23:10.941Z,43.91
2018-08-13T04:23:42.526Z,43.94
2018-08-13T04:24:14.121Z,43.89
2018-08-13T04:24:45.726Z,43.99
2018-08-13T04:25:17.316Z,43.93
2018-08-13T04:25:48.914Z,44.02
2018-08-13T04:26:20.489Z,43.90
2018-08-13T04:26:52.112Z,43.94
2018-08-13T04:27:23.705Z,43.97
2018-08-13T04:27:55.281Z,44.02
2018-08-13T04:28:26.867Z,44.01
2018-08-13T04:28:58.455Z,43.98
2018-08-13T04:29:30.036Z,44.05
2018-08-13T04:30:01.625Z,44.08
2018-08-13T04:30:33.207Z,44.06
2018-08-13T04:31:04.833Z,44.09
2018-08-13T04:31:36.402Z,44.06
2018-08-13T04:32:07.984Z,43.91
2018-08-13T04:32:39.592Z,43.99
2018-08-13T04:33:11.183Z,44.04
2018-08-13T04:33:42.757Z,44.05
2018-08-13T04:34:14.339Z,44.06
2018-08-13T04:34:45.920Z,44.07
2018-08-13T04:35:17.552Z,44.00
2018-08-13T04:35:49.145Z,44.12
2018-08-13T04:36:20.745Z,43.98
2018-08-13T04:36:52.346Z,43.98
2018-08-13T04:37:23.950Z,44.12
2018-08-13T04:37:55.538Z,44.07
2018-08-13T04:38:27.128Z,44.14
2018-08-13T04:38:58.743Z,44.27
2018-08-13T04:39:30.336Z,44.32
2018-08-13T04:40:01.938Z,44.36
2018-08-13T04:40:33.581Z,44.40
2018-08-13T04:41:05.167Z,44.21
2018-08-13T04:41:36.761Z,44.22
2018-08-13T04:42:08.357Z,44.25
2018-08-13T04:42:39.953Z,44.22
2018-08-13T04:43:11.543Z,44.23
2018-08-13T04:43:43.125Z,44.22
2018-08-13T04:44:14.706Z,44.29
2018-08-13T04:44:46.295Z,44.37
2018-08-13T04:45:17.879Z,44.28
2018-08-13T04:45:49.507Z,44.21
2018-08-13T04:46:21.089Z,44.29
2018-08-13T04:46:52.742Z,44.34
2018-08-13T04:47:24.350Z,44.30
2018-08-13T04:47:55.944Z,44.28
2018-08-13T04:48:27.540Z,44.27
2018-08-13T04:48:59.137Z,43.96
2018-08-13T04:49:30.733Z,44.07
2018-08-13T04:50:02.319Z,44.02
2018-08-13T04:50:33.940Z,44.03
2018-08-13T04:51:05.538Z,44.09
2018-08-13T04:51:37.124Z,44.15
2018-08-13T04:52:08.727Z,44.24
2018-08-13T04:52:40.333Z,44.33
2018-08-13T04:53:11.915Z,44.38
2018-08-13T04:53:43.513Z,44.37
2018-08-13T04:54:15.091Z,44.38
2018-08-13T04:54:46.679Z,44.34
2018-08-13T04:55:18.317Z,44.32
2018-08-13T04:55:49.913Z,44.30
2018-08-13T04:56:21.509Z,44.41
2018-08-13T04:56:53.110Z,44.36
2018-08-13T04:57:24.712Z,44.30
2018-08-13T04:57:56.281Z,44.44
2018-08-13T04:58:27.891Z,44.54
2018-08-13T04:58:59.518Z,44.65
2018-08-13T04:59:31.099Z,44.55
2018-08-13T05:00:02.783Z,44.61
2018-08-13T05:00:34.353Z,44.56
2018-08-13T05:01:05.957Z,44.58
2018-08-13T05:01:37.574Z,44.59
2018-08-13T05:02:09.168Z,44.53
2018-08-13T05:02:40.766Z,44.53
2018-08-13T05:03:12.359Z,44.55
2018-08-13T05:03:43.944Z,44.53
2018-08-13T05:04:15.527Z,44.69
2018-08-13T05:04:47.159Z,44.50
2018-08-13T05:05:18.743Z,44.37
2018-08-13T05:05:50.336Z,44.34
2018-08-13T05:06:21.938Z,44.43
2018-08-13T05:06:53.523Z,44.53
2018-08-13T05:07:25.175Z,44.58
2018-08-13T05:07:56.718Z,44.64
2018-08-13T05:08:28.325Z,44.71
2018-08-13T05:08:59.911Z,44.59
2018-08-13T05:09:31.493Z,44.68
2018-08-13T05:10:03.081Z,44.72
2018-08-13T05:10:34.686Z,44.74
2018-08-13T05:11:06.290Z,44.64
2018-08-13T05:11:37.882Z,44.43
2018-08-13T05:12:09.471Z,44.50
2018-08-13T05:12:41.045Z,44.49
2018-08-13T05:13:12.630Z,44.40
2018-08-13T05:13:44.265Z,44.37
2018-08-13T05:14:15.891Z,44.37
2018-08-13T05:14:47.474Z,44.37
2018-08-13T05:15:19.085Z,44.45
2018-08-13T05:15:50.671Z,44.50
2018-08-13T05:16:22.269Z,44.42
2018-08-13T05:16:53.895Z,44.40
2018-08-13T05:17:25.498Z,44.44
2018-08-13T05:17:57.087Z,44.49
2018-08-13T05:18:28.685Z,44.61
2018-08-13T05:19:00.271Z,44.57
2018-08-13T05:19:31.856Z,44.59
2018-08-13T05:20:03.450Z,44.57
2018-08-13T05:20:35.086Z,44.58
2018-08-13T05:21:06.676Z,44.58
2018-08-13T05:21:38.287Z,44.68
2018-08-13T05:22:09.872Z,44.70
2018-08-13T05:22:41.455Z,44.79
2018-08-13T05:23:13.041Z,44.88
2018-08-13T05:23:44.628Z,44.88
2018-08-13T05:24:16.212Z,44.82
2018-08-13T05:24:47.798Z,44.77
2018-08-13T05:25:19.415Z,44.69
2018-08-13T05:25:51.012Z,44.65
2018-08-13T05:26:22.604Z,44.60
2018-08-13T05:26:54.177Z,44.48
2018-08-13T05:27:25.769Z,44.49
2018-08-13T05:27:57.365Z,44.58
2018-08-13T05:28:28.991Z,44.62
2018-08-13T05:29:00.566Z,44.57
2018-08-13T05:29:32.173Z,44.58
2018-08-13T05:30:03.836Z,44.68
2018-08-13T05:30:35.370Z,44.65
2018-08-13T05:31:06.955Z,44.80
2018-08-13T05:31:38.546Z,44.81
2018-08-13T05:32:10.183Z,44.80
2018-08-13T05:32:41.753Z,44.80
2018-08-13T05:33:13.353Z,44.83
2018-08-13T05:33:45.003Z,44.87
2018-08-13T05:34:16.605Z,44.92
2018-08-13T05:34:48.201Z,44.97
2018-08-13T05:35:19.791Z,45.00
2018-08-13T05:35:51.375Z,44.91
2018-08-13T05:36:22.974Z,44.91
2018-08-13T05:36:54.577Z,44.85
2018-08-13T05:37:26.164Z,44.88
2018-08-13T05:37:57.747Z,44.93
2018-08-13T05:38:29.336Z,44.94
2018-08-13T05:39:00.906Z,44.92
2018-08-13T05:39:32.527Z,44.95
2018-08-13T05:40:04.094Z,44.99
2018-08-13T05:40:35.693Z,44.87
2018-08-13T05:41:07.289Z,44.82
2018-08-13T05:41:38.872Z,44.79
2018-08-13T05:42:10.473Z,44.91
2018-08-13T05:42:42.045Z,44.86
2018-08-13T05:43:13.614Z,44.83
2018-08-13T05:43:45.210Z,44.77
2018-08-13T05:44:17.121Z,44.82
2018-08-13T05:44:48.745Z,44.80
2018-08-13T05:45:20.350Z,44.76
2018-08-13T05:45:51.944Z,44.76
2018-08-13T05:46:23.531Z,44.78
2018-08-13T05:46:55.115Z,44.81
2018-08-13T05:47:26.694Z,44.80
2018-08-13T05:47:58.285Z,44.95
2018-08-13T05:48:29.871Z,44.99
2018-08-13T05:49:01.468Z,45.11
2018-08-13T05:49:33.051Z,45.02
2018-08-13T05:50:04.690Z,45.21
2018-08-13T05:50:36.289Z,45.30
2018-08-13T05:51:07.879Z,45.24
2018-08-13T05:51:39.473Z,45.17
2018-08-13T05:52:11.058Z,45.27
2018-08-13T05:52:42.647Z,45.20
2018-08-13T05:53:14.244Z,45.20
2018-08-13T05:53:45.849Z,45.18
2018-08-13T05:54:18.105Z,45.21
2018-08-13T05:54:49.690Z,45.10
2018-08-13T05:55:21.275Z,45.07
2018-08-13T05:55:52.864Z,45.00
2018-08-13T05:56:24.458Z,45.05
2018-08-13T05:56:56.058Z,44.99
2018-08-13T05:57:27.705Z,44.95
2018-08-13T05:57:59.300Z,44.97
2018-08-13T05:58:30.903Z,44.99
2018-08-13T05:59:02.507Z,44.97
2018-08-13T05:59:34.145Z,44.98
2018-08-13T06:00:05.731Z,45.02
2018-08-13T06:00:37.315Z,45.01
2018-08-13T06:01:08.898Z,45.02
2018-08-13T06:01:40.493Z,45.03
2018-08-13T06:02:12.089Z,45.09
2018-08-13T06:02:43.689Z,45.12
2018-08-13T06:03:15.342Z,45.02
2018-08-13T06:03:46.927Z,45.04
2018-08-13T06:04:18.505Z,45.11
2018-08-13T06:04:50.093Z,45.07
2018-08-13T06:05:21.674Z,45.08
2018-08-13T06:05:53.259Z,45.05
2018-08-13T06:06:24.830Z,45.05
2018-08-13T06:06:56.425Z,45.01
2018-08-13T06:07:28.027Z,45.01
2018-08-13T06:07:59.609Z,45.04
2018-08-13T06:08:31.257Z,45.04
2018-08-13T06:09:02.846Z,45.08
2018-08-13T06:09:34.435Z,45.16
2018-08-13T06:10:06.039Z,45.12
2018-08-13T06:10:37.638Z,45.08
2018-08-13T06:11:09.259Z,45.10
2018-08-13T06:11:40.873Z,45.16
2018-08-13T06:12:12.440Z,45.15
2018-08-13T06:12:44.018Z,45.07
2018-08-13T06:13:15.603Z,45.07
2018-08-13T06:13:47.195Z,45.08
2018-08-13T06:14:18.788Z,45.16
2018-08-13T06:14:50.359Z,45.28
2018-08-13T06:15:21.948Z,45.38
2018-08-13T06:15:53.522Z,45.33
2018-08-13T06:16:25.103Z,45.29
2018-08-13T06:16:56.683Z,45.34
2018-08-13T06:17:28.267Z,45.74
2018-08-13T06:17:59.874Z,45.56
2018-08-13T06:18:31.513Z,45.44
2018-08-13T06:19:03.086Z,45.56
2018-08-13T06:19:34.703Z,45.61
2018-08-13T06:20:06.287Z,45.61
2018-08-13T06:20:37.889Z,45.63
2018-08-13T06:21:09.493Z,45.59
2018-08-13T06:21:41.085Z,45.55
2018-08-13T06:22:12.675Z,45.59
2018-08-13T06:22:44.274Z,45.52
2018-08-13T06:23:15.864Z,45.44
2018-08-13T06:23:47.496Z,45.71
2018-08-13T06:24:19.223Z,45.59
2018-08-13T06:24:50.684Z,45.57
2018-08-13T06:25:22.311Z,45.50
2018-08-13T06:25:53.912Z,45.54
2018-08-13T06:26:25.489Z,45.58
2018-08-13T06:26:57.066Z,45.61
2018-08-13T06:27:28.651Z,45.61
2018-08-13T06:28:00.297Z,45.57
2018-08-13T06:28:31.869Z,45.47
2018-08-13T06:29:03.454Z,45.45
2018-08-13T06:29:35.044Z,45.38
2018-08-13T06:30:06.652Z,45.44
2018-08-13T06:30:38.238Z,45.50
2018-08-13T06:31:09.823Z,45.71
2018-08-13T06:31:41.406Z,45.74
2018-08-13T06:32:12.990Z,45.73
2018-08-13T06:32:44.569Z,45.67
2018-08-13T06:33:16.203Z,45.70
2018-08-13T06:33:47.788Z,45.63
2018-08-13T06:34:19.385Z,45.58
2018-08-13T06:34:50.971Z,45.57
2018-08-13T06:35:22.570Z,45.65
2018-08-13T06:35:54.271Z,45.63
2018-08-13T06:36:25.784Z,45.77
2018-08-13T06:36:57.371Z,45.72
2018-08-13T06:37:28.960Z,45.70
2018-08-13T06:38:00.547Z,45.68
2018-08-13T06:38:32.122Z,45.67
2018-08-13T06:39:03.705Z,45.67
2018-08-13T06:39:35.301Z,45.67
2018-08-13T06:40:06.907Z,45.62
2018-08-13T06:40:38.513Z,45.65
2018-08-13T06:41:10.094Z,45.61
2018-08-13T06:41:41.683Z,45.66
2018-08-13T06:42:13.276Z,45.75
2018-08-13T06:42:44.930Z,45.84
2018-08-13T06:43:16.519Z,45.81
2018-08-13T06:43:48.113Z,45.90
2018-08-13T06:44:19.753Z,45.93
2018-08-13T06:44:51.332Z,45.93
2018-08-13T06:45:22.919Z,45.93
2018-08-13T06:45:54.503Z,45.94
2018-08-13T06:46:26.087Z,46.01
2018-08-13T06:46:57.730Z,45.96